createdAt,value
2018-06-27T00:00:15.422Z,10.10
2018-06-27T00:05:08.634Z,12.28
2018-06-27T00:10:02.012Z,9.23
2018-06-27T00:14:55.320Z,9.40
2018-06-27T00:19:49.148Z,10.93
2018-06-27T00:24:42.435Z,11.23
2018-06-27T00:29:35.664Z,12.73
2018-06-27T00:34:28.884Z,10.67
2018-06-27T00:39:22.117Z,10.23
2018-06-27T00:44:15.358Z,11.13
2018-06-27T00:49:08.574Z,11.12
2018-06-27T00:54:09.732Z,12.17
2018-06-27T00:59:02.887Z,14.17
2018-06-27T01:03:56.172Z,13.98
2018-06-27T01:08:49.443Z,14.43
2018-06-27T01:13:42.675Z,17.02
2018-06-27T01:18:35.954Z,15.97
2018-06-27T01:23:29.170Z,16.20
2018-06-27T01:28:22.410Z,14.83
2018-06-27T01:33:15.641Z,15.48
2018-06-27T01:38:08.917Z,16.23
2018-06-27T01:43:02.141Z,15.03
2018-06-27T01:47:56.410Z,16.93
2018-06-27T01:52:49.925Z,15.83
2018-06-27T01:57:43.155Z,16.20
2018-06-27T02:02:36.383Z,15.87
2018-06-27T02:07:29.614Z,16.30
2018-06-27T02:12:22.847Z,15.60
2018-06-27T02:17:15.972Z,17.87
2018-06-27T02:22:09.276Z,16.07
2018-06-27T02:27:02.507Z,14.87
2018-06-27T02:31:55.744Z,15.67
2018-06-27T02:36:48.878Z,15.60
2018-06-27T02:41:42.150Z,17.10
2018-06-27T02:46:35.407Z,18.23
2018-06-27T02:51:28.655Z,17.43
2018-06-27T02:56:22.112Z,17.45
2018-06-27T03:01:15.366Z,15.50
2018-06-27T03:06:09.316Z,16.30
2018-06-27T03:11:02.550Z,16.30
2018-06-27T03:15:57.376Z,17.20
2018-06-27T03:20:50.592Z,16.87
2018-06-27T03:25:43.818Z,19.73
2018-06-27T03:30:37.386Z,17.87
2018-06-27T03:35:30.690Z,19.90
2018-06-27T03:40:24.030Z,16.23
2018-06-27T03:45:17.341Z,17.47
2018-06-27T03:50:10.583Z,13.28
2018-06-27T03:55:03.798Z,15.17
2018-06-27T03:59:57.038Z,11.35
2018-06-27T04:04:50.198Z,11.23
2018-06-27T04:09:43.464Z,11.85
2018-06-27T04:14:36.781Z,14.23
2018-06-27T04:19:30.005Z,14.23
2018-06-27T04:24:24.284Z,18.23
2018-06-27T04:29:17.578Z,16.47
2018-06-27T04:34:10.834Z,15.53
2018-06-27T04:39:07.504Z,14.90
2018-06-27T04:44:01.408Z,17.07
2018-06-27T04:48:54.657Z,16.77
2018-06-27T04:53:47.873Z,15.70
2018-06-27T04:58:40.995Z,15.13
2018-06-27T05:03:34.269Z,17.67
2018-06-27T05:08:27.528Z,16.43
2018-06-27T05:13:20.794Z,17.48
2018-06-27T05:18:14.046Z,16.40
2018-06-27T05:23:07.239Z,15.65
2018-06-27T05:28:00.547Z,16.90
2018-06-27T05:32:53.761Z,17.60
2018-06-27T05:37:46.980Z,16.63
2018-06-27T05:42:40.245Z,17.23
2018-06-27T05:47:33.514Z,15.03
2018-06-27T05:52:26.775Z,16.85
2018-06-27T05:57:20.036Z,17.87
2018-06-27T06:02:13.239Z,17.82
2018-06-27T06:07:06.497Z,18.47
2018-06-27T06:11:59.754Z,16.42
2018-06-27T06:16:53.038Z,17.30
2018-06-27T06:21:46.284Z,15.08
2018-06-27T06:26:40.438Z,15.97
2018-06-27T06:31:33.699Z,16.53
2018-06-27T06:36:26.921Z,16.73
2018-06-27T06:41:20.178Z,16.00
2018-06-27T06:46:13.487Z,13.60
2018-06-27T06:51:06.887Z,16.63
2018-06-27T06:56:00.139Z,15.33
2018-06-27T07:00:53.384Z,15.30
2018-06-27T07:05:46.655Z,15.77
2018-06-27T07:10:39.948Z,15.63
2018-06-27T07:15:33.226Z,10.53
2018-06-27T07:20:26.485Z,11.43
2018-06-27T07:25:19.747Z,11.00
2018-06-27T07:30:13.058Z,9.68
2018-06-27T07:35:07.601Z,11.67
2018-06-27T07:40:00.830Z,12.63
2018-06-27T07:44:54.092Z,12.05
2018-06-27T07:49:47.302Z,14.40
2018-06-27T07:54:41.499Z,12.85
2018-06-27T07:59:34.795Z,11.37
2018-06-27T08:04:28.060Z,10.88
2018-06-27T08:09:21.277Z,9.83
2018-06-27T08:14:14.649Z,8.93
2018-06-27T08:19:07.900Z,8.17
2018-06-27T08:24:01.692Z,6.65
2018-06-27T08:28:55.214Z,8.95
2018-06-27T08:33:48.576Z,6.97
2018-06-27T08:38:43.023Z,6.87
2018-06-27T08:43:36.261Z,7.73
2018-06-27T08:48:29.530Z,6.17
2018-06-27T08:53:22.769Z,8.77
2018-06-27T08:58:16.058Z,6.00
2018-06-27T09:03:09.332Z,7.30
2018-06-27T09:08:02.567Z,5.80
2018-06-27T09:12:55.779Z,5.70
2018-06-27T09:17:49.056Z,7.00
2018-06-27T09:22:42.292Z,6.40
2018-06-27T09:27:35.581Z,7.28
2018-06-27T09:32:28.826Z,7.07
2018-06-27T09:37:22.058Z,6.28
2018-06-27T09:42:15.394Z,6.43
2018-06-27T09:47:10.523Z,6.80
2018-06-27T09:52:03.772Z,8.33
2018-06-27T09:56:57.276Z,7.42
2018-06-27T10:01:50.508Z,10.57
2018-06-27T10:06:43.766Z,6.00
2018-06-27T10:11:37.079Z,7.70
2018-06-27T10:16:30.373Z,5.33
2018-06-27T10:21:23.529Z,5.47
2018-06-27T10:26:16.742Z,5.73
2018-06-27T10:31:10.039Z,6.60
2018-06-27T10:36:03.292Z,4.23
2018-06-27T10:40:56.518Z,5.87
2018-06-27T10:45:49.792Z,7.03
2018-06-27T10:50:42.982Z,5.65
2018-06-27T10:55:36.133Z,5.93
2018-06-27T11:00:29.431Z,6.90
2018-06-27T11:05:22.783Z,8.57
2018-06-27T11:10:16.036Z,6.08
2018-06-27T11:15:09.393Z,5.07
2018-06-27T11:20:02.743Z,7.28
2018-06-27T11:24:55.943Z,7.37
2018-06-27T11:29:49.297Z,6.57
2018-06-27T11:34:42.565Z,4.63
2018-06-27T11:39:35.799Z,6.23
2018-06-27T11:44:29.128Z,8.35
2018-06-27T11:49:22.893Z,4.57
2018-06-27T11:54:16.107Z,6.17
2018-06-27T11:59:10.014Z,6.80
2018-06-27T12:04:03.492Z,5.20
2018-06-27T12:08:56.748Z,5.77
2018-06-27T12:13:50.005Z,6.97
2018-06-27T12:18:43.421Z,5.43
2018-06-27T12:23:36.784Z,4.12
2018-06-27T12:28:30.044Z,4.17
2018-06-27T12:33:23.272Z,3.12
2018-06-27T12:38:16.520Z,3.03
2018-06-27T12:43:09.902Z,4.80
2018-06-27T12:48:03.145Z,4.87
2018-06-27T12:52:56.505Z,4.75
2018-06-27T12:57:49.653Z,5.30
2018-06-27T13:02:42.923Z,3.77
2018-06-27T13:07:36.166Z,2.10
2018-06-27T13:12:29.428Z,4.62
2018-06-27T13:17:23.223Z,3.23
2018-06-27T13:22:17.005Z,1.60
2018-06-27T13:27:10.248Z,4.43
2018-06-27T13:32:03.645Z,1.72
2018-06-27T13:36:56.905Z,2.07
2018-06-27T13:41:50.202Z,4.45
2018-06-27T13:46:46.136Z,4.10
2018-06-27T13:51:39.428Z,3.90
2018-06-27T13:56:32.744Z,3.70
2018-06-27T14:01:26.066Z,5.63
2018-06-27T14:06:19.365Z,5.80
2018-06-27T14:11:14.048Z,4.10
2018-06-27T14:16:09.259Z,7.63
2018-06-27T14:21:02.527Z,5.37
2018-06-27T14:25:55.671Z,6.33
2018-06-27T14:30:48.934Z,5.10
2018-06-27T14:35:42.163Z,6.50
2018-06-27T14:40:35.438Z,4.07
2018-06-27T14:45:28.716Z,4.37
2018-06-27T14:50:22.287Z,10.20
2018-06-27T14:55:15.582Z,4.13
2018-06-27T15:00:10.387Z,4.00
2018-06-27T15:05:04.715Z,3.73
2018-06-27T15:09:57.960Z,5.00
2018-06-27T15:14:51.170Z,4.47
2018-06-27T15:19:44.477Z,6.60
2018-06-27T15:24:37.684Z,4.17
2018-06-27T15:29:30.965Z,5.77
2018-06-27T15:34:24.205Z,3.47
2018-06-27T15:39:17.439Z,4.47
2018-06-27T15:44:10.972Z,4.83
2018-06-27T15:49:06.426Z,3.07
2018-06-27T15:53:59.672Z,3.80
2018-06-27T15:58:53.701Z,4.12
2018-06-27T16:03:47.000Z,5.93
2018-06-27T16:08:40.352Z,3.70
2018-06-27T16:13:33.634Z,7.17
2018-06-27T16:18:26.870Z,2.87
2018-06-27T16:23:20.130Z,4.93
2018-06-27T16:28:13.305Z,5.65
2018-06-27T16:33:06.545Z,2.53
2018-06-27T16:37:59.728Z,3.25
2018-06-27T16:42:53.088Z,4.53
2018-06-27T16:47:46.364Z,4.62
2018-06-27T16:52:39.612Z,3.93
2018-06-27T16:57:32.931Z,4.00
2018-06-27T17:02:26.391Z,2.67
2018-06-27T17:07:19.610Z,3.43
2018-06-27T17:12:12.841Z,3.50
2018-06-27T17:17:06.354Z,5.93
2018-06-27T17:21:59.545Z,7.08
2018-06-27T17:26:52.754Z,6.73
2018-06-27T17:31:46.234Z,3.25
2018-06-27T17:36:39.514Z,5.13
2018-06-27T17:41:32.796Z,4.77
2018-06-27T17:46:26.016Z,7.30
2018-06-27T17:51:19.180Z,7.07
2018-06-27T17:56:12.355Z,6.87
2018-06-27T18:01:05.525Z,4.93
2018-06-27T18:05:58.780Z,2.70
2018-06-27T18:10:52.078Z,5.20
2018-06-27T18:15:45.818Z,4.33
2018-06-27T18:20:39.070Z,3.65
2018-06-27T18:25:32.381Z,5.17
2018-06-27T18:30:25.631Z,4.47
2018-06-27T18:35:18.968Z,3.80
2018-06-27T18:40:12.186Z,2.92
2018-06-27T18:45:06.461Z,6.93
2018-06-27T18:50:01.357Z,3.33
2018-06-27T18:54:54.679Z,5.67
2018-06-27T18:59:48.027Z,3.25
2018-06-27T19:04:41.342Z,3.57
2018-06-27T19:09:34.700Z,2.80
2018-06-27T19:14:27.983Z,3.30
2018-06-27T19:19:21.904Z,6.13
2018-06-27T19:24:15.970Z,4.97
2018-06-27T19:29:09.872Z,3.57
2018-06-27T19:34:03.257Z,3.43
2018-06-27T19:38:56.626Z,4.17
2018-06-27T19:43:51.437Z,2.50
2018-06-27T19:48:44.874Z,4.67
2018-06-27T19:53:38.144Z,2.60
2018-06-27T19:58:31.909Z,8.13
2018-06-27T20:03:25.029Z,3.50
2018-06-27T20:08:18.286Z,3.45
2018-06-27T20:13:11.655Z,3.33
2018-06-27T20:18:05.204Z,6.12
2018-06-27T20:22:58.516Z,6.87
2018-06-27T20:27:51.967Z,3.73
2018-06-27T20:32:45.332Z,3.43
2018-06-27T20:37:39.328Z,5.67
2018-06-27T20:42:32.586Z,3.50
2018-06-27T20:47:25.902Z,4.53
2018-06-27T20:52:19.059Z,3.90
2018-06-27T20:57:12.267Z,4.67
2018-06-27T21:02:06.255Z,4.53
2018-06-27T21:06:59.594Z,4.60
2018-06-27T21:11:52.912Z,5.85
2018-06-27T21:16:46.247Z,4.50
2018-06-27T21:21:39.624Z,6.07
2018-06-27T21:26:33.631Z,3.50
2018-06-27T21:31:26.788Z,2.90
2018-06-27T21:36:19.925Z,3.77
2018-06-27T21:41:13.315Z,3.03
2018-06-27T21:46:06.616Z,2.50
2018-06-27T21:50:59.840Z,4.23
2018-06-27T21:55:53.364Z,2.37
2018-06-27T22:00:46.634Z,3.83
2018-06-27T22:05:39.995Z,3.17
2018-06-27T22:10:33.240Z,4.20
2018-06-27T22:15:27.210Z,2.57
2018-06-27T22:20:20.525Z,2.47
2018-06-27T22:25:13.995Z,2.92
2018-06-27T22:30:07.440Z,2.17
2018-06-27T22:35:00.681Z,1.87
2018-06-27T22:39:53.950Z,2.25
2018-06-27T22:44:47.223Z,2.23
2018-06-27T22:49:40.506Z,1.80
2018-06-27T22:54:33.754Z,3.00
2018-06-27T22:59:27.006Z,2.20
2018-06-27T23:04:20.897Z,1.97
2018-06-27T23:09:14.149Z,2.00
2018-06-27T23:14:07.459Z,2.35
2018-06-27T23:19:00.866Z,2.07
2018-06-27T23:23:54.232Z,2.73
2018-06-27T23:28:47.582Z,2.87
2018-06-27T23:33:40.802Z,1.80
2018-06-27T23:38:34.182Z,3.47
2018-06-27T23:43:27.500Z,2.07
2018-06-27T23:48:20.845Z,2.07
2018-06-27T23:53:14.102Z,2.20
2018-06-27T23:58:07.500Z,3.73
